createdAt,value
2023-02-08T00:00:47.432Z,9.07
2023-02-08T00:03:14.208Z,9.00
2023-02-08T00:05:41.292Z,10.10
2023-02-08T00:08:08.146Z,8.83
2023-02-08T00:10:35.397Z,9.10
2023-02-08T00:13:02.232Z,7.90
2023-02-08T00:15:29.062Z,8.87
2023-02-08T00:17:55.737Z,9.73
2023-02-08T00:20:22.461Z,9.77
2023-02-08T00:22:49.144Z,9.10
2023-02-08T00:25:15.845Z,9.60
2023-02-08T00:27:42.517Z,8.50
2023-02-08T00:30:09.728Z,9.90
2023-02-08T00:32:36.459Z,9.37
2023-02-08T00:35:03.209Z,9.93
2023-02-08T00:37:29.973Z,8.90
2023-02-08T00:39:58.661Z,9.57
2023-02-08T00:42:26.758Z,11.10
2023-02-08T00:44:53.435Z,10.20
2023-02-08T00:47:20.122Z,10.07
2023-02-08T00:49:46.777Z,9.13
2023-02-08T00:52:13.448Z,8.83
2023-02-08T00:54:41.889Z,9.43
2023-02-08T00:57:09.078Z,9.60
2023-02-08T00:59:35.761Z,8.93
2023-02-08T01:02:02.597Z,9.30
2023-02-08T01:04:29.373Z,9.00
2023-02-08T01:06:56.148Z,8.93
2023-02-08T01:09:22.855Z,9.43
2023-02-08T01:11:49.560Z,9.50
2023-02-08T01:14:16.542Z,9.20
2023-02-08T01:16:43.258Z,9.30
2023-02-08T01:19:10.065Z,9.73
2023-02-08T01:21:39.234Z,9.10
2023-02-08T01:24:06.828Z,9.00
2023-02-08T01:26:33.871Z,11.17
2023-02-08T01:29:00.930Z,9.47
2023-02-08T01:31:30.962Z,8.00
2023-02-08T01:33:58.966Z,9.60
2023-02-08T01:36:26.819Z,9.67
2023-02-08T01:38:53.769Z,8.97
2023-02-08T01:41:23.153Z,9.23
2023-02-08T01:44:06.726Z,9.23
2023-02-08T01:46:35.641Z,10.07
2023-02-08T01:49:08.476Z,9.70
2023-02-08T01:51:39.215Z,9.43
2023-02-08T01:54:08.453Z,8.30
2023-02-08T01:56:38.189Z,7.90
2023-02-08T01:59:10.641Z,8.90
2023-02-08T02:01:38.915Z,9.97
2023-02-08T02:04:07.180Z,10.10
2023-02-08T02:06:38.842Z,9.90
2023-02-08T02:09:21.040Z,9.70
2023-02-08T02:11:49.857Z,10.73
2023-02-08T02:14:17.235Z,10.13
2023-02-08T02:16:43.997Z,9.83
2023-02-08T02:19:22.053Z,9.63
2023-02-08T02:22:01.206Z,9.60
2023-02-08T02:24:54.324Z,9.93
2023-02-08T02:27:46.885Z,10.57
2023-02-08T02:30:35.957Z,8.70
2023-02-08T02:33:22.192Z,9.20
2023-02-08T02:36:09.516Z,10.13
2023-02-08T02:38:48.369Z,9.60
2023-02-08T02:41:51.684Z,10.00
2023-02-08T02:44:50.507Z,9.40
2023-02-08T02:47:26.311Z,10.00
2023-02-08T02:50:03.524Z,9.40
2023-02-08T02:52:42.725Z,9.30
2023-02-08T02:55:15.771Z,9.57
2023-02-08T02:57:44.953Z,10.00
2023-02-08T03:00:17.777Z,10.60
2023-02-08T03:02:45.048Z,10.50
2023-02-08T03:05:12.336Z,9.83
2023-02-08T03:07:57.752Z,8.47
2023-02-08T03:10:33.446Z,9.73
2023-02-08T03:13:06.306Z,10.87
2023-02-08T03:15:41.507Z,10.07
2023-02-08T03:18:45.742Z,9.87
2023-02-08T03:21:32.096Z,10.67
2023-02-08T03:24:07.757Z,10.23
2023-02-08T03:26:40.263Z,10.70
2023-02-08T03:29:17.619Z,9.33
2023-02-08T03:31:56.051Z,8.93
2023-02-08T03:34:25.528Z,10.97
2023-02-08T03:37:18.729Z,10.17
2023-02-08T03:39:47.129Z,10.93
2023-02-08T03:42:21.709Z,9.80
2023-02-08T03:44:57.080Z,9.03
2023-02-08T03:47:28.033Z,11.20
2023-02-08T03:49:58.668Z,8.90
2023-02-08T03:52:26.121Z,10.13
2023-02-08T03:55:01.930Z,9.87
2023-02-08T03:57:38.299Z,9.20
2023-02-08T04:00:13.233Z,9.40
2023-02-08T04:02:49.137Z,10.50
2023-02-08T04:05:16.603Z,9.77
2023-02-08T04:07:43.305Z,11.20
2023-02-08T04:10:10.080Z,10.47
2023-02-08T04:12:36.794Z,9.30
2023-02-08T04:15:03.878Z,9.83
2023-02-08T04:17:30.610Z,10.20
2023-02-08T04:19:57.534Z,10.67
2023-02-08T04:22:24.228Z,9.60
2023-02-08T04:24:50.890Z,9.50
2023-02-08T04:27:17.600Z,10.70
2023-02-08T04:29:44.340Z,9.77
2023-02-08T04:32:11.793Z,10.57
2023-02-08T04:34:39.078Z,10.70
2023-02-08T04:37:07.024Z,10.60
2023-02-08T04:39:33.722Z,9.60
2023-02-08T04:42:02.971Z,10.00
2023-02-08T04:44:32.784Z,11.23
2023-02-08T04:47:00.155Z,10.80
2023-02-08T04:49:26.843Z,10.40
2023-02-08T04:51:53.590Z,10.53
2023-02-08T04:54:20.348Z,9.70
2023-02-08T04:56:47.189Z,11.73
2023-02-08T04:59:14.134Z,11.10
2023-02-08T05:01:40.919Z,9.57
2023-02-08T05:04:07.701Z,9.53
2023-02-08T05:06:34.388Z,10.20
2023-02-08T05:09:01.085Z,9.20
2023-02-08T05:11:28.161Z,10.50
2023-02-08T05:13:54.825Z,10.57
2023-02-08T05:16:21.603Z,10.07
2023-02-08T05:18:48.363Z,10.10
2023-02-08T05:21:15.034Z,10.33
2023-02-08T05:23:41.720Z,9.87
2023-02-08T05:26:10.281Z,10.20
2023-02-08T05:28:37.267Z,11.10
2023-02-08T05:31:17.524Z,9.73
2023-02-08T05:33:44.356Z,10.70
2023-02-08T05:36:11.167Z,11.87
2023-02-08T05:38:37.897Z,10.30
2023-02-08T05:41:04.658Z,10.20
2023-02-08T05:43:31.351Z,10.77
2023-02-08T05:45:58.022Z,11.47
2023-02-08T05:48:24.853Z,10.90
2023-02-08T05:50:51.540Z,10.37
2023-02-08T05:53:18.305Z,10.70
2023-02-08T05:55:46.308Z,10.13
2023-02-08T05:58:13.250Z,11.27
2023-02-08T06:00:40.511Z,9.83
2023-02-08T06:03:07.522Z,10.57
2023-02-08T06:05:34.847Z,10.70
2023-02-08T06:08:01.536Z,10.43
2023-02-08T06:10:28.225Z,9.83
2023-02-08T06:12:54.942Z,10.20
2023-02-08T06:15:21.623Z,10.20
2023-02-08T06:17:48.525Z,12.57
2023-02-08T06:20:15.223Z,10.90
2023-02-08T06:22:42.126Z,10.90
2023-02-08T06:25:09.077Z,10.17
2023-02-08T06:27:36.019Z,9.80
2023-02-08T06:30:02.941Z,10.07
2023-02-08T06:32:29.745Z,10.07
2023-02-08T06:34:57.430Z,10.43
2023-02-08T06:37:24.212Z,10.77
2023-02-08T06:39:50.880Z,12.67
2023-02-08T06:42:17.553Z,11.57
2023-02-08T06:44:54.460Z,11.40
2023-02-08T06:47:22.879Z,11.00
2023-02-08T06:49:49.672Z,10.80
2023-02-08T06:52:16.404Z,10.77
2023-02-08T06:54:43.201Z,12.23
2023-02-08T06:57:12.802Z,12.03
2023-02-08T06:59:40.605Z,12.43
2023-02-08T07:02:15.476Z,10.67
2023-02-08T07:04:43.001Z,10.37
2023-02-08T07:07:09.787Z,10.80
2023-02-08T07:09:36.664Z,11.43
2023-02-08T07:12:05.231Z,9.63
2023-02-08T07:14:36.611Z,11.73
2023-02-08T07:17:03.986Z,11.20
2023-02-08T07:19:31.323Z,11.60
2023-02-08T07:22:07.877Z,10.73
2023-02-08T07:24:39.965Z,11.33
2023-02-08T07:27:07.977Z,11.50
2023-02-08T07:29:34.826Z,11.43
2023-02-08T07:32:03.724Z,12.50
2023-02-08T07:34:31.927Z,12.20
2023-02-08T07:36:59.054Z,11.77
2023-02-08T07:39:25.800Z,11.20
2023-02-08T07:41:52.749Z,12.80
2023-02-08T07:44:19.495Z,12.60
2023-02-08T07:46:46.376Z,13.60
2023-02-08T07:49:13.038Z,11.93
2023-02-08T07:51:39.715Z,12.30
2023-02-08T07:54:06.370Z,10.97
2023-02-08T07:56:33.049Z,12.20
2023-02-08T07:58:59.769Z,12.50
2023-02-08T08:01:26.490Z,12.43
2023-02-08T08:03:53.496Z,12.03
2023-02-08T08:06:22.200Z,12.60
2023-02-08T08:08:49.566Z,12.37
2023-02-08T08:11:17.570Z,12.97
2023-02-08T08:13:44.401Z,13.00
2023-02-08T08:16:11.192Z,12.53
2023-02-08T08:18:37.983Z,13.73
2023-02-08T08:21:05.152Z,13.30
2023-02-08T08:23:33.268Z,13.63
2023-02-08T08:26:00.587Z,13.30
2023-02-08T08:28:27.867Z,13.47
2023-02-08T08:30:54.864Z,14.47
2023-02-08T08:33:21.681Z,14.47
2023-02-08T08:35:48.338Z,13.70
2023-02-08T08:38:15.013Z,16.00
2023-02-08T08:40:42.136Z,12.63
2023-02-08T08:43:08.979Z,13.37
2023-02-08T08:45:36.279Z,12.83
2023-02-08T08:48:06.069Z,14.80
2023-02-08T08:50:32.875Z,13.90
2023-02-08T08:52:59.650Z,12.47
2023-02-08T08:55:28.275Z,13.03
2023-02-08T08:57:55.100Z,13.00
2023-02-08T09:00:21.976Z,13.30
2023-02-08T09:02:48.978Z,13.40
2023-02-08T09:05:15.787Z,12.83
2023-02-08T09:07:42.464Z,15.00
2023-02-08T09:10:09.336Z,15.23
2023-02-08T09:12:36.499Z,14.53
2023-02-08T09:15:03.646Z,14.63
2023-02-08T09:17:30.344Z,13.27
2023-02-08T09:19:57.018Z,13.80
2023-02-08T09:22:24.767Z,13.80
2023-02-08T09:24:53.460Z,13.87
2023-02-08T09:27:20.124Z,15.97
2023-02-08T09:29:47.106Z,14.07
2023-02-08T09:32:13.850Z,15.10
2023-02-08T09:34:40.699Z,13.93
2023-02-08T09:37:07.533Z,14.00
2023-02-08T09:39:34.936Z,13.70
2023-02-08T09:42:20.943Z,14.53
2023-02-08T09:44:59.304Z,14.97
2023-02-08T09:47:36.348Z,15.07
2023-02-08T09:50:32.742Z,14.40
2023-02-08T09:53:10.222Z,13.80
2023-02-08T09:55:41.360Z,14.20
2023-02-08T09:58:42.850Z,19.67
2023-02-08T10:01:35.775Z,15.30
2023-02-08T10:04:28.190Z,15.47
2023-02-08T10:06:54.855Z,15.77
2023-02-08T10:09:27.196Z,16.23
2023-02-08T10:11:58.335Z,18.80
2023-02-08T10:14:39.595Z,17.03
2023-02-08T10:17:11.104Z,15.20
2023-02-08T10:19:48.293Z,16.20
2023-02-08T10:22:34.606Z,16.37
2023-02-08T10:25:19.547Z,16.43
2023-02-08T10:28:34.022Z,16.03
2023-02-08T10:31:10.534Z,15.93
2023-02-08T10:33:51.662Z,16.00
2023-02-08T10:36:25.128Z,15.30
2023-02-08T10:38:54.773Z,15.43
2023-02-08T10:41:32.034Z,15.47
2023-02-08T10:44:16.567Z,15.60
2023-02-08T10:46:51.864Z,15.93
2023-02-08T10:49:57.716Z,15.00
2023-02-08T10:52:24.433Z,15.53
2023-02-08T10:54:51.379Z,15.80
2023-02-08T10:57:23.714Z,14.60
2023-02-08T11:00:04.189Z,14.60
2023-02-08T11:02:35.842Z,16.60
2023-02-08T11:05:10.490Z,15.93
2023-02-08T11:07:37.429Z,14.70
2023-02-08T11:10:19.299Z,14.30
2023-02-08T11:13:03.869Z,14.20
2023-02-08T11:15:36.784Z,14.90
2023-02-08T11:18:06.092Z,15.20
2023-02-08T11:20:41.810Z,14.63
2023-02-08T11:23:37.861Z,15.90
2023-02-08T11:26:35.184Z,16.30
2023-02-08T11:29:14.773Z,15.00
2023-02-08T11:32:01.054Z,15.77
2023-02-08T11:34:39.277Z,15.90
2023-02-08T11:37:26.630Z,14.07
2023-02-08T11:39:58.409Z,14.37
2023-02-08T11:42:28.778Z,15.40
2023-02-08T11:44:57.109Z,14.93
2023-02-08T11:47:28.964Z,14.13
2023-02-08T11:49:59.368Z,15.00
2023-02-08T11:52:27.610Z,14.67
2023-02-08T11:55:11.085Z,14.80
2023-02-08T11:57:54.876Z,15.20
2023-02-08T12:00:23.654Z,14.00
2023-02-08T12:02:51.065Z,14.57
2023-02-08T12:05:22.545Z,14.00
2023-02-08T12:08:19.146Z,14.73
2023-02-08T12:11:22.668Z,14.47
2023-02-08T12:14:04.473Z,14.50
2023-02-08T12:17:04.896Z,13.90
2023-02-08T12:19:43.513Z,14.10
2023-02-08T12:22:23.650Z,14.53
2023-02-08T12:24:54.523Z,13.07
2023-02-08T12:28:00.111Z,14.97
2023-02-08T12:30:34.299Z,14.37
2023-02-08T12:33:12.149Z,14.10
2023-02-08T12:36:10.255Z,12.77
2023-02-08T12:39:17.907Z,14.37
2023-02-08T12:41:57.290Z,12.70
2023-02-08T12:44:48.523Z,11.90
2023-02-08T12:47:51.709Z,13.87
2023-02-08T12:50:37.895Z,13.63
2023-02-08T12:53:13.114Z,13.63
2023-02-08T12:55:42.870Z,12.90
2023-02-08T12:58:30.961Z,12.83
2023-02-08T13:01:22.680Z,13.50
2023-02-08T13:03:56.088Z,12.57
2023-02-08T13:06:28.420Z,13.83
2023-02-08T13:09:04.200Z,13.13
2023-02-08T13:11:39.390Z,13.17
2023-02-08T13:14:13.759Z,12.40
2023-02-08T13:16:46.937Z,12.23
2023-02-08T13:19:16.397Z,12.30
2023-02-08T13:21:44.009Z,13.70
2023-02-08T13:24:31.032Z,12.90
2023-02-08T13:26:57.987Z,13.00
2023-02-08T13:29:28.138Z,11.67
2023-02-08T13:32:05.115Z,12.23
2023-02-08T13:34:42.973Z,12.63
2023-02-08T13:37:26.252Z,13.63
2023-02-08T13:40:16.974Z,12.70
2023-02-08T13:42:50.712Z,10.90
2023-02-08T13:45:27.097Z,11.93
2023-02-08T13:48:00.447Z,13.13
2023-02-08T13:50:54.161Z,10.90
2023-02-08T13:53:47.193Z,11.30
2023-02-08T13:56:33.972Z,11.90
2023-02-08T13:59:01.720Z,11.93
2023-02-08T14:01:31.532Z,11.47
2023-02-08T14:04:07.027Z,11.90
2023-02-08T14:06:55.260Z,11.43
2023-02-08T14:10:00.554Z,13.13
2023-02-08T14:12:27.193Z,11.57
2023-02-08T14:15:07.774Z,10.40
2023-02-08T14:17:35.156Z,11.83
2023-02-08T14:20:07.018Z,11.57
2023-02-08T14:22:47.786Z,10.83
2023-02-08T14:25:20.739Z,10.73
2023-02-08T14:27:55.444Z,11.33
2023-02-08T14:30:25.278Z,10.70
2023-02-08T14:33:09.199Z,11.30
2023-02-08T14:35:39.506Z,11.00
2023-02-08T14:38:24.205Z,9.83
2023-02-08T14:40:58.941Z,10.80
2023-02-08T14:43:41.095Z,11.77
2023-02-08T14:46:42.218Z,10.23
2023-02-08T14:49:11.315Z,11.00
2023-02-08T14:51:41.466Z,10.77
2023-02-08T14:54:27.723Z,12.93
2023-02-08T14:56:58.322Z,12.13
2023-02-08T14:59:28.921Z,11.90
2023-02-08T15:02:04.173Z,11.67
2023-02-08T15:04:43.074Z,12.83
2023-02-08T15:07:23.423Z,11.57
2023-02-08T15:09:50.230Z,12.00
2023-02-08T15:12:57.661Z,12.37
2023-02-08T15:15:42.564Z,11.90
2023-02-08T15:18:19.541Z,11.80
2023-02-08T15:20:55.876Z,11.90
2023-02-08T15:23:24.414Z,10.73
2023-02-08T15:25:57.335Z,10.80
2023-02-08T15:28:27.473Z,11.63
2023-02-08T15:31:07.788Z,11.53
2023-02-08T15:33:37.894Z,10.97
2023-02-08T15:36:15.325Z,10.47
2023-02-08T15:38:44.836Z,10.00
2023-02-08T15:41:14.682Z,11.00
2023-02-08T15:43:42.906Z,11.50
2023-02-08T15:46:18.046Z,11.07
2023-02-08T15:48:46.374Z,9.67
2023-02-08T15:51:14.696Z,9.87
2023-02-08T15:53:48.044Z,9.80
2023-02-08T15:56:41.286Z,12.20
2023-02-08T15:59:20.043Z,11.73
2023-02-08T16:01:48.051Z,12.97
2023-02-08T16:04:14.773Z,11.50
2023-02-08T16:06:56.899Z,10.63
2023-02-08T16:09:28.001Z,11.03
2023-02-08T16:12:00.453Z,10.57
2023-02-08T16:14:29.517Z,10.47
2023-02-08T16:16:58.446Z,10.73
2023-02-08T16:19:33.140Z,10.90
2023-02-08T16:22:21.456Z,11.60
2023-02-08T16:24:50.820Z,9.70
2023-02-08T16:27:26.520Z,11.90
2023-02-08T16:29:53.782Z,12.20
2023-02-08T16:32:31.838Z,11.90
2023-02-08T16:35:00.110Z,10.63
2023-02-08T16:37:34.916Z,11.30
2023-02-08T16:40:33.509Z,10.50
2023-02-08T16:43:28.074Z,10.30
2023-02-08T16:46:16.327Z,10.97
2023-02-08T16:48:49.871Z,10.57
2023-02-08T16:51:24.669Z,10.93
2023-02-08T16:53:54.095Z,10.60
2023-02-08T16:56:20.941Z,9.80
2023-02-08T16:58:47.713Z,10.57
2023-02-08T17:01:15.452Z,9.40
2023-02-08T17:03:42.691Z,9.77
2023-02-08T17:06:29.803Z,10.27
2023-02-08T17:08:57.737Z,9.53
2023-02-08T17:11:24.581Z,10.47
2023-02-08T17:13:52.352Z,9.80
2023-02-08T17:16:21.457Z,9.27
2023-02-08T17:18:49.199Z,9.50
2023-02-08T17:21:16.911Z,9.77
2023-02-08T17:23:44.218Z,9.30
2023-02-08T17:26:29.087Z,10.67
2023-02-08T17:28:59.032Z,11.10
2023-02-08T17:31:28.041Z,12.43
2023-02-08T17:33:56.448Z,12.13
2023-02-08T17:36:23.088Z,9.70
2023-02-08T17:38:50.445Z,11.17
2023-02-08T17:41:19.997Z,9.60
2023-02-08T17:43:51.650Z,10.13
2023-02-08T17:46:21.491Z,10.17
2023-02-08T17:48:48.529Z,12.70
2023-02-08T17:51:18.065Z,11.90
2023-02-08T17:53:45.178Z,11.47
2023-02-08T17:56:13.789Z,12.27
2023-02-08T17:58:41.155Z,12.10
2023-02-08T18:01:10.097Z,10.03
2023-02-08T18:03:37.178Z,10.00
2023-02-08T18:06:06.051Z,9.97
2023-02-08T18:08:32.784Z,10.77
2023-02-08T18:11:04.821Z,13.40
2023-02-08T18:13:31.566Z,10.67
2023-02-08T18:15:58.341Z,11.13
2023-02-08T18:18:25.116Z,9.27
2023-02-08T18:20:51.825Z,10.30
2023-02-08T18:23:18.511Z,8.80
2023-02-08T18:25:45.495Z,10.57
2023-02-08T18:28:15.135Z,11.13
2023-02-08T18:30:42.501Z,10.90
2023-02-08T18:33:10.678Z,12.83
2023-02-08T18:35:37.943Z,12.53
2023-02-08T18:38:04.937Z,11.07
2023-02-08T18:40:32.381Z,10.37
2023-02-08T18:42:59.260Z,12.97
2023-02-08T18:45:26.068Z,10.77
2023-02-08T18:47:52.825Z,10.13
2023-02-08T18:50:19.599Z,10.10
2023-02-08T18:52:46.322Z,10.33
2023-02-08T18:55:13.066Z,10.33
2023-02-08T18:57:39.986Z,10.03
2023-02-08T19:00:07.388Z,9.17
2023-02-08T19:02:34.061Z,9.80
2023-02-08T19:05:00.761Z,11.40
2023-02-08T19:07:27.445Z,9.33
2023-02-08T19:09:54.164Z,9.63
2023-02-08T19:12:21.372Z,9.63
2023-02-08T19:14:51.016Z,9.30
2023-02-08T19:17:18.065Z,10.17
2023-02-08T19:19:44.946Z,10.67
2023-02-08T19:22:12.192Z,10.80
2023-02-08T19:24:39.019Z,15.27
2023-02-08T19:27:05.871Z,22.47
2023-02-08T19:29:34.453Z,20.53
2023-02-08T19:32:01.266Z,23.83
2023-02-08T19:34:28.104Z,14.30
2023-02-08T19:36:55.201Z,16.83
2023-02-08T19:39:26.833Z,21.17
2023-02-08T19:41:54.601Z,70.27
2023-02-08T19:44:22.588Z,107.83
2023-02-08T19:46:51.861Z,91.63
2023-02-08T19:49:19.301Z,88.33
2023-02-08T19:51:46.483Z,77.27
2023-02-08T19:54:16.967Z,68.80
2023-02-08T19:56:44.030Z,61.17
2023-02-08T19:59:28.365Z,61.63
2023-02-08T20:01:55.746Z,64.50
2023-02-08T20:04:23.464Z,54.97
2023-02-08T20:06:52.669Z,58.40
2023-02-08T20:09:19.787Z,54.37
2023-02-08T20:12:01.728Z,55.60
2023-02-08T20:14:32.728Z,51.07
2023-02-08T20:17:00.968Z,44.40
2023-02-08T20:19:28.350Z,46.07
2023-02-08T20:21:56.120Z,43.27
2023-02-08T20:24:22.786Z,38.07
2023-02-08T20:26:50.210Z,40.47
2023-02-08T20:29:17.540Z,33.23
2023-02-08T20:31:47.394Z,36.47
2023-02-08T20:34:16.579Z,33.97
2023-02-08T20:37:05.360Z,32.03
2023-02-08T20:39:33.518Z,36.53
2023-02-08T20:42:00.250Z,27.60
2023-02-08T20:44:28.419Z,30.60
2023-02-08T20:46:55.241Z,29.03
2023-02-08T20:49:23.958Z,33.67
2023-02-08T20:51:52.436Z,32.20
2023-02-08T20:54:19.693Z,33.20
2023-02-08T20:56:46.403Z,26.00
2023-02-08T20:59:15.772Z,27.23
2023-02-08T21:01:44.213Z,29.20
2023-02-08T21:04:12.282Z,21.87
2023-02-08T21:06:39.914Z,18.73
2023-02-08T21:09:10.908Z,22.83
2023-02-08T21:11:37.803Z,19.63
2023-02-08T21:14:05.595Z,20.10
2023-02-08T21:16:32.384Z,19.97
2023-02-08T21:18:59.593Z,19.63
2023-02-08T21:21:26.664Z,16.50
2023-02-08T21:23:53.461Z,17.67
2023-02-08T21:26:21.496Z,21.13
2023-02-08T21:28:51.747Z,19.13
2023-02-08T21:31:20.050Z,19.30
2023-02-08T21:33:47.438Z,18.70
2023-02-08T21:36:18.785Z,17.80
2023-02-08T21:38:45.951Z,15.93
2023-02-08T21:41:21.245Z,18.63
2023-02-08T21:43:49.167Z,16.90
2023-02-08T21:46:16.806Z,16.50
2023-02-08T21:49:02.358Z,17.27
2023-02-08T21:51:47.759Z,14.80
2023-02-08T21:54:29.709Z,13.03
2023-02-08T21:56:58.960Z,12.23
2023-02-08T21:59:25.884Z,15.77
2023-02-08T22:01:52.587Z,15.40
2023-02-08T22:04:19.308Z,13.93
2023-02-08T22:06:46.392Z,13.10
2023-02-08T22:09:13.236Z,16.23
2023-02-08T22:11:40.895Z,15.63
2023-02-08T22:14:07.722Z,14.50
2023-02-08T22:16:34.439Z,11.63
2023-02-08T22:19:01.185Z,13.83
2023-02-08T22:21:27.894Z,12.97
2023-02-08T22:23:55.644Z,11.37
2023-02-08T22:26:22.395Z,12.27
2023-02-08T22:28:49.116Z,14.27
2023-02-08T22:31:16.489Z,12.40
2023-02-08T22:33:43.476Z,12.83
2023-02-08T22:36:11.036Z,16.33
2023-02-08T22:38:38.542Z,12.27
2023-02-08T22:41:16.280Z,11.97
2023-02-08T22:43:43.110Z,14.03
2023-02-08T22:46:09.967Z,13.13
2023-02-08T22:48:36.905Z,16.33
2023-02-08T22:51:08.596Z,12.50
2023-02-08T22:53:35.605Z,12.50
2023-02-08T22:56:02.971Z,12.10
2023-02-08T22:58:29.825Z,12.73
2023-02-08T23:00:57.099Z,12.60
2023-02-08T23:03:24.281Z,11.80
2023-02-08T23:05:51.560Z,11.70
2023-02-08T23:08:20.536Z,12.53
2023-02-08T23:10:47.714Z,12.93
2023-02-08T23:13:14.412Z,14.67
2023-02-08T23:15:43.836Z,12.33
2023-02-08T23:18:10.644Z,12.10
2023-02-08T23:20:41.698Z,12.07
2023-02-08T23:23:08.648Z,12.47
2023-02-08T23:25:38.657Z,11.07
2023-02-08T23:28:06.214Z,12.20
2023-02-08T23:30:32.954Z,13.93
2023-02-08T23:32:59.629Z,11.70
2023-02-08T23:35:26.390Z,13.30
2023-02-08T23:37:53.065Z,10.90
2023-02-08T23:40:19.798Z,12.23
2023-02-08T23:42:46.503Z,10.73
2023-02-08T23:45:13.361Z,10.67
2023-02-08T23:47:40.540Z,9.47
2023-02-08T23:50:08.711Z,10.30
2023-02-08T23:52:36.596Z,11.20
2023-02-08T23:55:04.729Z,10.37
2023-02-08T23:57:36.506Z,10.47
